Terminal Aerodrome Forecast
Issued by NWS

Home | Current Version | Previous Version | Text Only | Print | Product List | Glossary Off
Versions: 1 2 3 4 5 6 7 8 9 10 11 12 13 14 15 16 17 18 19

554
FTUS43 KICT 270520
TAFSLN
TAF
KSLN 270520Z 2706/2806 08005KT P6SM SCT050
     FM270700 09006KT P6SM VCTS BKN050CB
      TEMPO 2707/2709 VRB15G30KT 3SM TSRA
     FM271000 14008KT P6SM FEW009 SCT015=

USA.gov is the U.S. government's official web portal to all federal, state and local government web resources and services.